Terminal Aerodrome Forecast
Issued by NWS Boston, MA

Home | Current Version | Previous Version | Text Only | Print | Product List | Glossary Off
Versions: 1 2 3 4 5 6 7 8 9 10 11 12 13 14 15 16 17 18 19 20 21 22 23 24 25 26 27 28 29 30 31 32 33 34 35 36 37 38 39 40 41 42 43 44 45 46 47 48
000 FTUS41 KBOX 301728 TAFBDL TAF KBDL 301728Z 3018/3124 22012KT P6SM BKN025 OVC035 FM301900 26009KT P6SM BKN035 FM310200 28008KT P6SM SCT130 FM312000 27006KT P6SM BKN080=

USA.gov is the U.S. government's official web portal to all federal, state and local government web resources and services.